createdAt,value
2023-01-25T00:00:47.512Z,11.90
2023-01-25T00:03:15.031Z,11.58
2023-01-25T00:05:42.224Z,11.59
2023-01-25T00:08:09.412Z,11.57
2023-01-25T00:10:37.388Z,11.30
2023-01-25T00:13:04.605Z,11.42
2023-01-25T00:15:31.722Z,11.31
2023-01-25T00:17:59.162Z,11.16
2023-01-25T00:20:26.523Z,11.10
2023-01-25T00:22:53.677Z,11.30
2023-01-25T00:25:21.085Z,11.24
2023-01-25T00:27:48.233Z,11.39
2023-01-25T00:30:17.175Z,11.31
2023-01-25T00:32:50.527Z,10.47
2023-01-25T00:35:17.742Z,9.78
2023-01-25T00:37:52.323Z,8.48
2023-01-25T00:40:19.497Z,8.68
2023-01-25T00:42:47.926Z,10.06
2023-01-25T00:45:15.127Z,10.10
2023-01-25T00:47:42.371Z,10.52
2023-01-25T00:50:10.529Z,10.52
2023-01-25T00:52:39.541Z,10.63
2023-01-25T00:55:07.420Z,10.55
2023-01-25T00:57:35.090Z,10.60
2023-01-25T01:00:02.251Z,10.69
2023-01-25T01:02:30.592Z,10.66
2023-01-25T01:04:58.355Z,10.80
2023-01-25T01:07:25.606Z,10.78
2023-01-25T01:09:52.817Z,10.94
2023-01-25T01:12:20.255Z,10.43
2023-01-25T01:14:47.810Z,10.63
2023-01-25T01:17:14.964Z,10.59
2023-01-25T01:19:42.376Z,10.77
2023-01-25T01:22:09.610Z,10.59
2023-01-25T01:24:36.766Z,10.61
2023-01-25T01:27:04.276Z,10.57
2023-01-25T01:29:31.565Z,10.08
2023-01-25T01:31:58.873Z,10.37
2023-01-25T01:34:26.779Z,10.52
2023-01-25T01:36:54.482Z,10.57
2023-01-25T01:39:21.671Z,10.11
2023-01-25T01:41:49.131Z,10.16
2023-01-25T01:44:20.408Z,10.32
2023-01-25T01:46:57.548Z,10.60
2023-01-25T01:49:27.035Z,10.50
2023-01-25T01:52:05.777Z,10.66
2023-01-25T01:54:47.612Z,10.75
2023-01-25T01:57:16.912Z,9.99
2023-01-25T01:59:58.592Z,10.17
2023-01-25T02:02:25.903Z,10.48
2023-01-25T02:04:53.938Z,10.58
2023-01-25T02:07:22.700Z,10.73
2023-01-25T02:09:50.993Z,10.61
2023-01-25T02:12:20.759Z,10.67
2023-01-25T02:14:51.601Z,10.79
2023-01-25T02:17:23.346Z,10.79
2023-01-25T02:20:03.072Z,10.67
2023-01-25T02:22:33.814Z,10.55
2023-01-25T02:25:06.117Z,10.40
2023-01-25T02:27:34.361Z,10.52
2023-01-25T02:30:01.523Z,10.47
2023-01-25T02:32:28.675Z,10.56
2023-01-25T02:34:56.130Z,10.61
2023-01-25T02:37:23.387Z,10.63
2023-01-25T02:39:51.492Z,9.69
2023-01-25T02:42:18.924Z,8.81
2023-01-25T02:44:46.144Z,9.82
2023-01-25T02:47:13.303Z,10.19
2023-01-25T02:49:40.938Z,9.52
2023-01-25T02:52:08.569Z,10.02
2023-01-25T02:54:36.134Z,10.07
2023-01-25T02:57:05.153Z,10.41
2023-01-25T02:59:33.556Z,10.47
2023-01-25T03:02:00.879Z,10.45
2023-01-25T03:04:28.654Z,10.53
2023-01-25T03:06:55.920Z,10.29
2023-01-25T03:09:23.252Z,10.27
2023-01-25T03:11:50.801Z,10.49
2023-01-25T03:14:18.504Z,9.99
2023-01-25T03:16:45.671Z,9.86
2023-01-25T03:19:13.518Z,9.95
2023-01-25T03:21:40.843Z,10.18
2023-01-25T03:24:09.162Z,10.15
2023-01-25T03:26:56.831Z,10.05
2023-01-25T03:29:24.357Z,9.78
2023-01-25T03:31:52.802Z,10.15
2023-01-25T03:34:20.473Z,10.05
2023-01-25T03:36:47.628Z,10.05
2023-01-25T03:39:15.120Z,10.33
2023-01-25T03:41:42.542Z,10.13
2023-01-25T03:44:11.582Z,10.15
2023-01-25T03:46:39.838Z,9.81
2023-01-25T03:49:07.384Z,9.78
2023-01-25T03:51:34.872Z,9.97
2023-01-25T03:54:02.514Z,10.07
2023-01-25T03:56:29.693Z,9.98
2023-01-25T03:58:57.489Z,10.08
2023-01-25T04:01:25.233Z,10.14
2023-01-25T04:03:53.370Z,10.22
2023-01-25T04:06:20.598Z,10.09
2023-01-25T04:08:47.845Z,9.94
2023-01-25T04:11:16.958Z,9.86
2023-01-25T04:13:44.879Z,9.94
2023-01-25T04:16:15.126Z,9.83
2023-01-25T04:18:44.343Z,10.00
2023-01-25T04:21:11.820Z,10.03
2023-01-25T04:23:39.051Z,9.93
2023-01-25T04:26:07.462Z,9.87
2023-01-25T04:28:34.914Z,9.74
2023-01-25T04:31:03.629Z,9.93
2023-01-25T04:33:32.504Z,10.14
2023-01-25T04:35:59.870Z,9.49
2023-01-25T04:38:27.115Z,9.84
2023-01-25T04:40:54.675Z,9.76
2023-01-25T04:43:24.909Z,9.59
2023-01-25T04:45:54.054Z,9.33
2023-01-25T04:48:21.868Z,9.65
2023-01-25T04:50:49.666Z,9.63
2023-01-25T04:53:17.583Z,9.46
2023-01-25T04:55:47.391Z,9.65
2023-01-25T04:58:14.935Z,9.86
2023-01-25T05:00:42.679Z,9.73
2023-01-25T05:03:10.551Z,9.72
2023-01-25T05:05:37.758Z,9.97
2023-01-25T05:08:05.547Z,9.89
2023-01-25T05:10:32.964Z,9.71
2023-01-25T05:13:02.487Z,9.66
2023-01-25T05:15:30.012Z,9.94
2023-01-25T05:17:57.601Z,10.09
2023-01-25T05:20:25.018Z,9.54
2023-01-25T05:22:52.217Z,10.04
2023-01-25T05:25:38.816Z,10.11
2023-01-25T05:28:07.181Z,10.10
2023-01-25T05:30:35.835Z,10.27
2023-01-25T05:33:03.484Z,10.24
2023-01-25T05:35:31.147Z,10.50
2023-01-25T05:37:58.883Z,10.41
2023-01-25T05:40:27.367Z,9.79
2023-01-25T05:42:58.412Z,9.45
2023-01-25T05:45:26.292Z,7.79
2023-01-25T05:47:55.467Z,8.89
2023-01-25T05:50:23.292Z,8.55
2023-01-25T05:52:51.315Z,9.03
2023-01-25T05:55:18.491Z,9.18
2023-01-25T05:57:46.120Z,9.51
2023-01-25T06:00:13.918Z,9.68
2023-01-25T06:02:41.963Z,9.30
2023-01-25T06:05:10.111Z,9.67
2023-01-25T06:07:37.591Z,9.45
2023-01-25T06:10:05.314Z,9.41
2023-01-25T06:12:33.167Z,9.49
2023-01-25T06:15:00.332Z,9.64
2023-01-25T06:17:30.606Z,9.83
2023-01-25T06:19:58.181Z,10.10
2023-01-25T06:22:26.503Z,10.39
2023-01-25T06:24:53.910Z,10.48
2023-01-25T06:27:21.171Z,10.36
2023-01-25T06:29:48.375Z,10.13
2023-01-25T06:32:15.958Z,10.30
2023-01-25T06:34:43.423Z,9.94
2023-01-25T06:37:10.881Z,10.06
2023-01-25T06:39:38.336Z,10.17
2023-01-25T06:42:05.580Z,9.73
2023-01-25T06:44:32.789Z,9.92
2023-01-25T06:47:00.220Z,9.96
2023-01-25T06:49:27.369Z,10.33
2023-01-25T06:51:54.608Z,10.07
2023-01-25T06:54:22.404Z,10.40
2023-01-25T06:56:49.595Z,10.63
2023-01-25T06:59:16.731Z,10.45
2023-01-25T07:01:44.164Z,10.15
2023-01-25T07:04:14.610Z,10.07
2023-01-25T07:06:41.830Z,10.32
2023-01-25T07:09:10.302Z,9.67
2023-01-25T07:11:37.462Z,9.22
2023-01-25T07:14:07.274Z,9.96
2023-01-25T07:16:38.591Z,9.66
2023-01-25T07:19:06.077Z,8.35
2023-01-25T07:21:34.768Z,9.78
2023-01-25T07:24:03.286Z,10.07
2023-01-25T07:26:31.984Z,10.31
2023-01-25T07:28:59.335Z,9.88
2023-01-25T07:31:27.229Z,10.22
2023-01-25T07:33:54.996Z,10.11
2023-01-25T07:36:22.542Z,10.49
2023-01-25T07:38:52.586Z,9.69
2023-01-25T07:41:19.783Z,9.43
2023-01-25T07:43:46.962Z,9.83
2023-01-25T07:46:18.609Z,10.20
2023-01-25T07:48:46.814Z,8.86
2023-01-25T07:51:23.249Z,8.85
2023-01-25T07:53:52.137Z,8.37
2023-01-25T07:56:19.862Z,8.09
2023-01-25T07:58:47.117Z,8.03
2023-01-25T08:01:18.918Z,7.40
2023-01-25T08:03:47.166Z,7.92
2023-01-25T08:06:14.313Z,6.98
2023-01-25T08:08:42.647Z,7.46
2023-01-25T08:11:17.683Z,7.90
2023-01-25T08:13:49.589Z,8.60
2023-01-25T08:16:18.009Z,8.90
2023-01-25T08:18:52.006Z,8.50
2023-01-25T08:21:19.417Z,8.13
2023-01-25T08:23:46.689Z,7.95
2023-01-25T08:26:14.174Z,7.83
2023-01-25T08:28:41.573Z,7.40
2023-01-25T08:31:09.719Z,8.49
2023-01-25T08:33:37.132Z,8.42
2023-01-25T08:36:04.815Z,8.20
2023-01-25T08:38:32.308Z,8.42
2023-01-25T08:41:06.176Z,8.48
2023-01-25T08:43:33.828Z,8.82
2023-01-25T08:46:01.054Z,8.42
2023-01-25T08:48:28.217Z,9.40
2023-01-25T08:50:55.959Z,9.96
2023-01-25T08:53:23.548Z,10.02
2023-01-25T08:55:51.032Z,9.78
2023-01-25T08:58:21.739Z,9.54
2023-01-25T09:00:49.223Z,9.06
2023-01-25T09:03:18.213Z,9.05
2023-01-25T09:05:45.806Z,9.23
2023-01-25T09:08:13.062Z,8.00
2023-01-25T09:10:40.199Z,7.99
2023-01-25T09:13:08.740Z,7.90
2023-01-25T09:15:36.037Z,8.59
2023-01-25T09:18:03.170Z,8.49
2023-01-25T09:20:34.231Z,8.51
2023-01-25T09:23:01.908Z,9.37
2023-01-25T09:25:29.069Z,9.59
2023-01-25T09:27:56.541Z,9.88
2023-01-25T09:30:33.785Z,10.12
2023-01-25T09:33:09.672Z,9.10
2023-01-25T09:35:37.346Z,9.60
2023-01-25T09:38:04.530Z,8.53
2023-01-25T09:40:34.239Z,8.50
2023-01-25T09:43:04.507Z,9.00
2023-01-25T09:45:36.027Z,8.65
2023-01-25T09:48:12.390Z,8.21
2023-01-25T09:50:39.920Z,9.22
2023-01-25T09:53:22.143Z,9.46
2023-01-25T09:55:54.279Z,9.68
2023-01-25T09:58:23.128Z,10.21
2023-01-25T10:00:51.503Z,10.29
2023-01-25T10:03:32.391Z,10.21
2023-01-25T10:06:00.217Z,10.25
2023-01-25T10:08:27.654Z,10.03
2023-01-25T10:11:21.046Z,10.67
2023-01-25T10:13:48.627Z,10.08
2023-01-25T10:16:25.680Z,10.26
2023-01-25T10:19:10.374Z,9.71
2023-01-25T10:21:40.656Z,9.91
2023-01-25T10:24:24.541Z,9.81
2023-01-25T10:26:53.023Z,9.85
2023-01-25T10:29:21.297Z,10.36
2023-01-25T10:31:53.699Z,9.80
2023-01-25T10:34:34.112Z,10.08
2023-01-25T10:37:03.458Z,9.12
2023-01-25T10:39:31.413Z,8.67
2023-01-25T10:42:04.919Z,8.63
2023-01-25T10:44:32.479Z,9.55
2023-01-25T10:47:01.871Z,8.65
2023-01-25T10:49:55.517Z,9.46
2023-01-25T10:52:27.238Z,9.40
2023-01-25T10:55:14.694Z,9.61
2023-01-25T10:57:55.460Z,9.46
2023-01-25T11:00:34.545Z,9.56
2023-01-25T11:03:02.246Z,9.53
2023-01-25T11:05:36.303Z,9.53
2023-01-25T11:08:22.255Z,9.25
2023-01-25T11:10:49.708Z,8.97
2023-01-25T11:13:19.547Z,9.42
2023-01-25T11:15:48.855Z,10.22
2023-01-25T11:18:36.429Z,10.63
2023-01-25T11:21:25.142Z,10.77
2023-01-25T11:24:04.604Z,10.17
2023-01-25T11:26:32.698Z,10.15
2023-01-25T11:29:12.327Z,10.33
2023-01-25T11:31:45.501Z,9.88
2023-01-25T11:34:16.857Z,9.49
2023-01-25T11:36:44.256Z,9.74
2023-01-25T11:39:14.320Z,9.78
2023-01-25T11:41:47.208Z,10.03
2023-01-25T11:44:14.600Z,10.00
2023-01-25T11:46:41.818Z,9.43
2023-01-25T11:49:08.978Z,9.42
2023-01-25T11:51:40.698Z,9.20
2023-01-25T11:54:26.670Z,9.54
2023-01-25T11:57:01.171Z,9.87
2023-01-25T11:59:43.651Z,10.14
2023-01-25T12:02:30.138Z,9.31
2023-01-25T12:05:21.530Z,9.18
2023-01-25T12:07:49.181Z,9.54
2023-01-25T12:10:21.126Z,9.60
2023-01-25T12:13:03.438Z,9.81
2023-01-25T12:15:30.848Z,8.73
2023-01-25T12:17:57.987Z,9.01
2023-01-25T12:20:40.578Z,9.90
2023-01-25T12:23:11.350Z,10.45
2023-01-25T12:25:41.636Z,10.26
2023-01-25T12:28:17.232Z,10.64
2023-01-25T12:31:05.023Z,10.61
2023-01-25T12:33:38.577Z,10.89
2023-01-25T12:36:19.854Z,10.42
2023-01-25T12:38:56.322Z,10.77
2023-01-25T12:41:29.102Z,11.18
2023-01-25T12:43:59.388Z,11.07
2023-01-25T12:46:29.091Z,10.78
2023-01-25T12:48:58.005Z,10.53
2023-01-25T12:51:25.151Z,10.85
2023-01-25T12:53:52.326Z,11.03
2023-01-25T12:56:40.709Z,11.04
2023-01-25T12:59:11.713Z,10.81
2023-01-25T13:01:45.480Z,11.34
2023-01-25T13:04:21.748Z,11.65
2023-01-25T13:06:54.930Z,10.50
2023-01-25T13:09:30.984Z,10.21
2023-01-25T13:11:59.485Z,9.36
2023-01-25T13:14:28.365Z,9.88
2023-01-25T13:17:09.442Z,9.79
2023-01-25T13:19:37.708Z,8.81
2023-01-25T13:22:04.977Z,9.49
2023-01-25T13:24:32.830Z,9.70
2023-01-25T13:27:00.246Z,9.15
2023-01-25T13:29:33.491Z,9.03
2023-01-25T13:32:01.219Z,9.12
2023-01-25T13:34:42.127Z,9.58
2023-01-25T13:37:15.600Z,9.53
2023-01-25T13:39:46.341Z,10.27
2023-01-25T13:42:13.774Z,10.24
2023-01-25T13:44:45.136Z,10.08
2023-01-25T13:47:13.407Z,10.16
2023-01-25T13:49:41.138Z,10.52
2023-01-25T13:52:11.798Z,10.47
2023-01-25T13:54:45.550Z,10.19
2023-01-25T13:57:14.402Z,10.49
2023-01-25T13:59:41.755Z,10.33
2023-01-25T14:02:27.237Z,11.00
2023-01-25T14:04:55.976Z,11.37
2023-01-25T14:07:25.167Z,11.68
2023-01-25T14:09:52.321Z,11.37
2023-01-25T14:12:34.071Z,11.28
2023-01-25T14:15:10.921Z,11.73
2023-01-25T14:17:38.352Z,10.57
2023-01-25T14:20:11.726Z,11.41
2023-01-25T14:22:39.220Z,10.98
2023-01-25T14:25:26.665Z,10.04
2023-01-25T14:27:54.106Z,9.79
2023-01-25T14:30:21.691Z,11.03
2023-01-25T14:32:49.835Z,11.33
2023-01-25T14:35:42.698Z,10.58
2023-01-25T14:38:25.811Z,10.70
2023-01-25T14:40:54.735Z,10.86
2023-01-25T14:43:22.113Z,11.34
2023-01-25T14:45:49.303Z,11.06
2023-01-25T14:48:35.838Z,11.51
2023-01-25T14:51:09.785Z,11.06
2023-01-25T14:53:38.443Z,11.18
2023-01-25T14:56:05.599Z,10.75
2023-01-25T14:58:32.831Z,9.83
2023-01-25T15:01:00.821Z,9.85
2023-01-25T15:03:28.398Z,10.03
2023-01-25T15:05:55.726Z,10.49
2023-01-25T15:08:39.062Z,11.01
2023-01-25T15:11:25.045Z,10.38
2023-01-25T15:14:00.969Z,10.90
2023-01-25T15:16:34.419Z,11.14
2023-01-25T15:19:01.894Z,11.48
2023-01-25T15:21:32.010Z,11.53
2023-01-25T15:24:04.546Z,11.31
2023-01-25T15:26:33.090Z,9.80
2023-01-25T15:29:01.143Z,8.55
2023-01-25T15:31:31.266Z,8.98
2023-01-25T15:33:59.999Z,9.92
2023-01-25T15:36:27.515Z,10.13
2023-01-25T15:38:54.671Z,10.73
2023-01-25T15:41:22.312Z,10.11
2023-01-25T15:43:49.735Z,10.16
2023-01-25T15:46:18.293Z,10.36
2023-01-25T15:48:45.907Z,10.35
2023-01-25T15:51:13.361Z,11.19
2023-01-25T15:53:40.963Z,11.13
2023-01-25T15:56:12.490Z,11.12
2023-01-25T15:58:41.876Z,11.64
2023-01-25T16:01:09.911Z,11.78
2023-01-25T16:03:41.737Z,12.11
2023-01-25T16:06:18.057Z,10.95
2023-01-25T16:08:45.912Z,11.44
2023-01-25T16:11:13.314Z,11.89
2023-01-25T16:13:41.474Z,11.35
2023-01-25T16:16:15.694Z,11.32
2023-01-25T16:18:43.295Z,11.77
2023-01-25T16:21:12.496Z,11.42
2023-01-25T16:23:40.759Z,11.50
2023-01-25T16:26:15.783Z,11.85
2023-01-25T16:28:43.428Z,12.11
2023-01-25T16:31:26.290Z,12.16
2023-01-25T16:33:59.583Z,12.37
2023-01-25T16:36:27.007Z,11.97
2023-01-25T16:38:54.531Z,11.55
2023-01-25T16:41:31.700Z,11.72
2023-01-25T16:44:00.400Z,12.08
2023-01-25T16:46:28.961Z,12.34
2023-01-25T16:48:57.189Z,12.51
2023-01-25T16:51:27.344Z,12.62
2023-01-25T16:53:58.081Z,12.74
2023-01-25T16:56:26.562Z,12.40
2023-01-25T16:58:55.379Z,12.22
2023-01-25T17:01:23.966Z,12.55
2023-01-25T17:03:52.185Z,12.75
2023-01-25T17:06:21.004Z,12.68
2023-01-25T17:08:49.031Z,12.74
2023-01-25T17:11:19.241Z,12.22
2023-01-25T17:13:50.712Z,12.61
2023-01-25T17:16:19.717Z,12.64
2023-01-25T17:18:47.383Z,12.65
2023-01-25T17:21:17.787Z,12.29
2023-01-25T17:23:49.140Z,12.35
2023-01-25T17:26:18.158Z,12.17
2023-01-25T17:28:47.019Z,12.30
2023-01-25T17:31:19.453Z,12.64
2023-01-25T17:33:48.647Z,12.53
2023-01-25T17:36:17.272Z,12.69
2023-01-25T17:38:45.242Z,12.68
2023-01-25T17:41:14.465Z,12.75
2023-01-25T17:43:44.030Z,12.69
2023-01-25T17:46:28.648Z,12.76
2023-01-25T17:48:57.733Z,12.98
2023-01-25T17:51:26.920Z,12.91
2023-01-25T17:53:54.754Z,12.92
2023-01-25T17:56:23.733Z,12.90
2023-01-25T17:58:52.585Z,13.06
2023-01-25T18:01:21.278Z,12.20
2023-01-25T18:03:52.561Z,12.64
2023-01-25T18:06:21.444Z,12.62
2023-01-25T18:08:52.925Z,12.84
2023-01-25T18:11:25.156Z,12.80
2023-01-25T18:13:54.717Z,12.72
2023-01-25T18:16:24.840Z,12.82
2023-01-25T18:18:56.490Z,12.66
2023-01-25T18:21:26.145Z,12.63
2023-01-25T18:23:56.914Z,12.10
2023-01-25T18:26:26.662Z,12.42
2023-01-25T18:28:55.929Z,12.43
2023-01-25T18:31:26.321Z,12.61
2023-01-25T18:33:58.730Z,12.81
2023-01-25T18:36:27.805Z,12.73
2023-01-25T18:38:58.760Z,12.75
2023-01-25T18:41:27.683Z,12.60
2023-01-25T18:44:01.325Z,12.71
2023-01-25T18:46:30.359Z,11.20
2023-01-25T18:48:59.159Z,11.40
2023-01-25T18:51:29.885Z,12.07
2023-01-25T18:53:58.813Z,12.45
2023-01-25T18:56:28.259Z,12.41
2023-01-25T18:58:59.000Z,12.37
2023-01-25T19:01:33.641Z,10.46
2023-01-25T19:04:10.948Z,11.93
2023-01-25T19:06:39.556Z,11.69
2023-01-25T19:09:10.749Z,11.01
2023-01-25T19:11:41.501Z,10.62
2023-01-25T19:14:10.633Z,11.56
2023-01-25T19:16:41.130Z,11.97
2023-01-25T19:19:10.491Z,11.97
2023-01-25T19:21:39.217Z,12.09
2023-01-25T19:24:12.699Z,11.96
2023-01-25T19:26:42.142Z,11.10
2023-01-25T19:29:10.899Z,10.04
2023-01-25T19:31:39.870Z,10.64
2023-01-25T19:34:09.950Z,11.49
2023-01-25T19:36:41.127Z,11.03
2023-01-25T19:39:12.107Z,11.42
2023-01-25T19:41:41.185Z,11.26
2023-01-25T19:44:13.525Z,10.80
2023-01-25T19:46:42.411Z,9.87
2023-01-25T19:49:12.329Z,9.16
2023-01-25T19:51:44.147Z,9.93
2023-01-25T19:54:16.353Z,10.89
2023-01-25T19:56:46.060Z,11.11
2023-01-25T19:59:20.941Z,9.44
2023-01-25T20:01:48.638Z,8.70
2023-01-25T20:04:20.130Z,9.65
2023-01-25T20:06:49.395Z,10.04
2023-01-25T20:09:28.406Z,9.65
2023-01-25T20:12:01.088Z,8.97
2023-01-25T20:14:34.434Z,8.55
2023-01-25T20:17:02.437Z,7.80
2023-01-25T20:19:36.047Z,9.05
2023-01-25T20:22:04.785Z,8.88
2023-01-25T20:24:33.779Z,9.97
2023-01-25T20:27:04.242Z,9.99
2023-01-25T20:29:35.076Z,10.65
2023-01-25T20:32:04.895Z,10.71
2023-01-25T20:34:34.960Z,11.26
2023-01-25T20:37:04.367Z,11.50
2023-01-25T20:39:32.547Z,11.47
2023-01-25T20:42:01.842Z,11.38
2023-01-25T20:44:31.244Z,11.52
2023-01-25T20:47:01.120Z,11.51
2023-01-25T20:49:31.959Z,11.87
2023-01-25T20:52:02.641Z,11.99
2023-01-25T20:54:32.191Z,12.17
2023-01-25T20:57:01.598Z,12.30
2023-01-25T20:59:30.128Z,12.04
2023-01-25T21:01:58.475Z,12.01
2023-01-25T21:04:29.247Z,12.12
2023-01-25T21:06:58.077Z,12.11
2023-01-25T21:09:29.801Z,11.90
2023-01-25T21:12:06.513Z,12.06
2023-01-25T21:14:35.704Z,11.83
2023-01-25T21:17:06.612Z,12.08
2023-01-25T21:19:34.700Z,12.37
2023-01-25T21:22:03.727Z,12.48
2023-01-25T21:24:32.391Z,12.54
2023-01-25T21:27:00.151Z,12.11
2023-01-25T21:29:28.841Z,11.91
2023-01-25T21:32:00.212Z,11.99
2023-01-25T21:34:37.338Z,12.23
2023-01-25T21:37:05.343Z,12.64
2023-01-25T21:39:34.708Z,12.56
2023-01-25T21:42:02.289Z,12.32
2023-01-25T21:44:48.717Z,12.12
2023-01-25T21:47:29.836Z,11.97
2023-01-25T21:50:16.921Z,12.30
2023-01-25T21:52:44.691Z,12.18
2023-01-25T21:55:12.283Z,11.65
2023-01-25T21:57:46.523Z,11.09
2023-01-25T22:00:16.580Z,11.49
2023-01-25T22:02:44.185Z,11.96
2023-01-25T22:05:11.387Z,12.15
2023-01-25T22:07:38.733Z,12.50
2023-01-25T22:10:06.342Z,12.28
2023-01-25T22:12:33.576Z,11.83
2023-01-25T22:15:01.550Z,11.76
2023-01-25T22:17:29.042Z,11.53
2023-01-25T22:19:56.241Z,11.71
2023-01-25T22:22:23.385Z,12.03
2023-01-25T22:24:50.841Z,12.18
2023-01-25T22:27:17.940Z,12.06
2023-01-25T22:29:45.080Z,11.57
2023-01-25T22:32:12.534Z,11.93
2023-01-25T22:34:39.687Z,12.21
2023-01-25T22:37:06.854Z,12.21
2023-01-25T22:39:34.284Z,12.21
2023-01-25T22:42:01.427Z,12.16
2023-01-25T22:44:28.623Z,12.39
2023-01-25T22:46:56.044Z,12.46
2023-01-25T22:49:23.285Z,12.54
2023-01-25T22:51:50.448Z,12.49
2023-01-25T22:54:17.896Z,12.05
2023-01-25T22:56:45.044Z,12.34
2023-01-25T22:59:14.329Z,12.45
2023-01-25T23:01:41.787Z,12.46
2023-01-25T23:04:11.627Z,12.40
2023-01-25T23:06:38.877Z,11.98
2023-01-25T23:09:06.447Z,12.30
2023-01-25T23:11:37.112Z,12.27
2023-01-25T23:14:27.366Z,12.18
2023-01-25T23:17:17.739Z,11.97
2023-01-25T23:19:44.965Z,11.73
2023-01-25T23:22:12.537Z,12.07
2023-01-25T23:24:39.700Z,12.27
2023-01-25T23:27:06.864Z,12.33
2023-01-25T23:29:34.365Z,12.08
2023-01-25T23:32:01.585Z,12.08
2023-01-25T23:34:34.565Z,12.14
2023-01-25T23:37:02.064Z,12.27
2023-01-25T23:39:29.220Z,12.50
2023-01-25T23:41:56.357Z,12.35
2023-01-25T23:44:23.793Z,12.46
2023-01-25T23:46:54.276Z,12.55
2023-01-25T23:49:21.493Z,12.28
2023-01-25T23:51:48.938Z,11.97
2023-01-25T23:54:16.725Z,11.75
2023-01-25T23:56:43.902Z,12.00
2023-01-25T23:59:11.328Z,12.41
